Millenium Air

Millenium Air Since 1998



 METAR AND TAF INFORMATION
METAR FOR ENCN
ADDS - METARS form results

(0432 UTC 25 February 2021)
Data provider http://aviationweather.gov/metar/data/
 
METAR text: ENCN 250420Z AUTO 19012KT 7000 OVC006/// 06/05 Q1013 RERA
Conditions at: ENCN (KRISTIANSAND/KJE, NO) observed 0420 UTC 25 February 2021
Temperature: 6.0°C (43°F)
Dewpoint: 5.0°C (41°F) [RH = 93%]
Pressure (altimeter): 29.91 inches Hg (1013.0 mb)
Winds: from the S (190 degrees) at 14 MPH (12 knots; 6.2 m/s)
Visibility: 4 miles ( 7 km)
Ceiling: 600 feet AGL
Clouds: overcast cloud deck at 600 feet AGL
Weather: no significant weather observed at this time

METAR text: ENCN 250350Z AUTO 20012KT 6000 DZ OVC006/// 06/05 Q1013
Conditions at: ENCN (KRISTIANSAND/KJE, NO) observed 0350 UTC 25 February 2021
Temperature: 6.0°C (43°F)
Dewpoint: 5.0°C (41°F) [RH = 93%]
Pressure (altimeter): 29.91 inches Hg (1013.0 mb)
Winds: from the SSW (200 degrees) at 14 MPH (12 knots; 6.2 m/s)
Visibility: 4 miles ( 6 km)
Ceiling: 600 feet AGL
Clouds: overcast cloud deck at 600 feet AGL
Weather: DZ  (moderate drizzle)

Forecast for: ENCN (KRISTIANSAND/KJE, NO)
Text: TAF ENCN 250200Z 2503/2512 20010KT 7000 SCT005 OVC010
Forecast period: 0300 to 0900 UTC 25 February 2021
Forecast type: FROM: standard forecast or significant change
Winds: from the SSW (200 degrees) at 12 MPH (10 knots; 5.1 m/s)
Visibility: 4 miles (7 km)
Ceiling: 1000 feet AGL
Clouds: scattered clouds at 500 feet AGL
overcast cloud deck at 1000 feet AGL
Weather: no significant weather forecast for this period
Text: TEMPO 2503/2509 2000 DZRA BR OVC003
Forecast period: 0300 to 0900 UTC 25 February 2021
Forecast type: TEMPORARY: The following changes expected for less than half the time period
Visibility: 1.24 miles (2.00 km)
Ceiling: 300 feet AGL
Clouds: overcast cloud deck at 300 feet AGL
Weather: DZ RA BR  (moderate drizzle, moderate rain, mist)
Text: BECMG 2509/2511 26015KT SCT015
Forecast period: 0900 to 1200 UTC 25 February 2021
Forecast type: BECOMING: Conditions expected to become as follows by 1100 UTC 25 February 2021
Winds: from the W (260 degrees) at 17 MPH (15 knots; 7.7 m/s)
Visibility: 4 miles (7 km)
Ceiling: at least 12,000 feet AGL
Clouds: scattered clouds at 1500 feet AGL
Weather: no significant weather forecast for this period

 AIRPORT MAP

 RUNWAY INFORMATION
Runway 04 Runway length 6660 ft Runway width 148 ft
Runway elevation 41 ft Runway displaced threshold 394 ft Runway heading 35
Runway 22 Runway length 6660 ft Runway width 148 ft
Runway elevation 52 ft Runway displaced threshold 623 ft Runway heading 215

 AIRPORT FREQUENCIES
Type ATIS Name INFO Frequency 124.475 MHZ
Type TWR Name TWR Frequency 118.1 MHZ

 AIRPORT NEAR NAVIGATION AIDS
Type NDB Name Odderoy Frequency 372 KHZ
Type VOR-DME Name Svensheia Frequency 112100 KHZ